createdAt,value
2023-10-26T00:04:49.015Z,13.10
2023-10-26T00:09:51.834Z,13.10
2023-10-26T00:14:55.165Z,13.20
2023-10-26T00:19:59.417Z,13.20
2023-10-26T00:25:02.232Z,13.20
2023-10-26T00:30:06.081Z,13.20
2023-10-26T00:35:10.941Z,13.20
2023-10-26T00:40:14.678Z,13.30
2023-10-26T00:45:20.273Z,13.30
2023-10-26T00:50:24.708Z,13.30
2023-10-26T00:55:28.499Z,13.40
2023-10-26T01:00:32.548Z,13.40
2023-10-26T01:05:36.685Z,13.40
2023-10-26T01:10:39.801Z,13.40
2023-10-26T01:15:42.797Z,13.40
2023-10-26T01:20:47.012Z,13.40
2023-10-26T01:25:54.620Z,13.30
2023-10-26T01:30:57.528Z,13.20
2023-10-26T01:36:00.318Z,13.00
2023-10-26T01:41:05.710Z,12.90
2023-10-26T01:46:08.577Z,12.70
2023-10-26T01:51:11.364Z,12.70
2023-10-26T01:56:15.519Z,12.60
2023-10-26T02:01:18.347Z,12.60
2023-10-26T02:06:21.378Z,12.60
2023-10-26T02:11:25.723Z,12.60
2023-10-26T02:16:28.511Z,12.60
2023-10-26T02:21:31.347Z,12.60
2023-10-26T02:26:35.477Z,12.60
2023-10-26T02:31:38.253Z,12.60
2023-10-26T02:36:41.047Z,12.60
2023-10-26T02:41:45.156Z,12.60
2023-10-26T02:46:47.946Z,12.60
2023-10-26T02:51:50.722Z,12.50
2023-10-26T02:56:54.966Z,12.50
2023-10-26T03:01:58.236Z,12.40
2023-10-26T03:07:01.127Z,12.40
2023-10-26T03:12:06.037Z,12.50
2023-10-26T03:17:08.878Z,12.50
2023-10-26T03:22:11.859Z,12.70
2023-10-26T03:27:16.327Z,12.70
2023-10-26T03:32:19.160Z,12.60
2023-10-26T03:37:21.995Z,12.60
2023-10-26T03:42:26.194Z,12.70
2023-10-26T03:47:29.168Z,12.60
2023-10-26T03:52:32.072Z,12.60
2023-10-26T03:57:36.231Z,12.80
2023-10-26T04:02:41.359Z,12.80
2023-10-26T04:08:22.888Z,12.80
2023-10-26T04:13:37.336Z,12.90
2023-10-26T04:19:15.661Z,12.90
2023-10-26T04:30:18.923Z,12.70
2023-10-26T04:35:50.485Z,12.60
2023-10-26T04:52:44.566Z,12.60
2023-10-26T04:57:47.901Z,12.60
2023-10-26T05:02:52.398Z,12.70
2023-10-26T05:07:55.331Z,12.70
2023-10-26T05:12:58.090Z,12.60
2023-10-26T05:18:02.277Z,12.60
2023-10-26T05:23:06.504Z,12.60
2023-10-26T05:28:09.469Z,12.60
2023-10-26T05:33:13.690Z,12.60
2023-10-26T05:38:19.734Z,12.60
2023-10-26T05:43:22.650Z,12.60
2023-10-26T05:48:26.925Z,12.60
2023-10-26T05:53:29.762Z,12.50
2023-10-26T05:58:32.740Z,12.70
2023-10-26T06:03:36.960Z,12.70
2023-10-26T06:08:40.194Z,12.70
2023-10-26T06:13:43.139Z,12.80
2023-10-26T06:18:47.312Z,12.80
2023-10-26T06:23:50.197Z,12.80
2023-10-26T06:28:54.209Z,12.80
2023-10-26T06:33:58.399Z,12.80
2023-10-26T06:39:01.232Z,12.90
2023-10-26T06:44:04.439Z,12.90
2023-10-26T06:49:18.857Z,13.00
2023-10-26T06:54:31.448Z,13.10
2023-10-26T06:59:34.283Z,13.10
2023-10-26T07:04:38.699Z,13.20
2023-10-26T07:09:41.928Z,13.30
2023-10-26T07:14:44.907Z,13.40
2023-10-26T07:19:49.424Z,13.40
2023-10-26T07:24:52.257Z,13.50
2023-10-26T07:29:55.122Z,13.50
2023-10-26T07:34:59.901Z,13.60
2023-10-26T07:40:28.938Z,13.70
2023-10-26T07:45:27.166Z,13.80
2023-10-26T07:50:31.488Z,13.80
2023-10-26T07:55:34.735Z,13.80
2023-10-26T08:00:39.101Z,13.80
2023-10-26T08:05:43.267Z,13.80
2023-10-26T08:10:46.105Z,14.00
2023-10-26T08:16:11.228Z,14.20
2023-10-26T08:21:14.277Z,14.30
2023-10-26T08:26:17.192Z,14.30
2023-10-26T08:31:20.135Z,14.20
2023-10-26T08:36:26.452Z,14.20
2023-10-26T08:41:33.660Z,14.20
2023-10-26T08:46:36.765Z,14.00
2023-10-26T08:51:41.237Z,13.90
2023-10-26T08:56:44.347Z,13.90
2023-10-26T09:01:48.630Z,14.00
2023-10-26T09:06:54.174Z,14.00
2023-10-26T09:12:10.505Z,14.20
2023-10-26T09:17:27.687Z,14.30
2023-10-26T09:22:39.208Z,14.50
2023-10-26T09:27:43.278Z,14.60
2023-10-26T09:32:47.461Z,14.30
2023-10-26T09:37:53.173Z,14.40
2023-10-26T09:42:57.965Z,14.70
2023-10-26T09:48:04.490Z,14.80
2023-10-26T09:58:15.830Z,14.60
2023-10-26T10:03:19.874Z,14.70
2023-10-26T10:08:56.141Z,14.70
2023-10-26T10:14:00.331Z,14.70
2023-10-26T10:19:27.086Z,14.60
2023-10-26T10:24:51.949Z,14.90
2023-10-26T10:30:09.837Z,15.20
2023-10-26T10:35:14.144Z,15.40
2023-10-26T10:40:20.986Z,15.50
2023-10-26T10:45:26.008Z,15.80
2023-10-26T10:50:31.236Z,16.00
2023-10-26T10:55:34.615Z,16.30
2023-10-26T11:00:47.053Z,16.70
2023-10-26T11:05:51.573Z,17.00
2023-10-26T11:10:55.364Z,16.70
2023-10-26T11:15:59.691Z,16.00
2023-10-26T11:21:02.597Z,15.90
2023-10-26T11:26:16.796Z,15.90
2023-10-26T11:31:43.107Z,16.00
2023-10-26T11:36:47.734Z,16.80
2023-10-26T11:41:54.543Z,18.20
2023-10-26T11:47:03.452Z,18.40
2023-10-26T11:52:08.052Z,21.10
2023-10-26T11:57:11.162Z,22.50
2023-10-26T12:02:15.645Z,20.20
2023-10-26T12:07:18.616Z,18.10
2023-10-26T12:12:21.641Z,17.20
2023-10-26T12:17:26.191Z,16.90
2023-10-26T12:22:29.224Z,16.40
2023-10-26T12:27:32.246Z,16.20
2023-10-26T12:32:56.488Z,16.00
2023-10-26T12:37:59.636Z,15.70
2023-10-26T12:43:02.732Z,15.50
2023-10-26T12:48:07.139Z,15.40
2023-10-26T12:53:10.038Z,15.30
2023-10-26T12:58:12.982Z,15.10
2023-10-26T13:03:17.281Z,15.00
2023-10-26T13:08:21.071Z,15.00
2023-10-26T13:13:23.921Z,15.00
2023-10-26T13:18:28.207Z,14.90
2023-10-26T13:23:31.094Z,14.80
2023-10-26T13:28:34.224Z,14.80
2023-10-26T13:33:38.756Z,14.60
2023-10-26T13:38:42.261Z,14.60
2023-10-26T13:43:45.163Z,14.60
2023-10-26T13:48:49.673Z,14.60
2023-10-26T13:53:52.948Z,14.50
2023-10-26T13:58:56.105Z,14.50
2023-10-26T14:04:00.558Z,14.50
2023-10-26T14:09:04.786Z,14.50
2023-10-26T14:14:08.784Z,14.50
2023-10-26T14:19:13.354Z,14.50
2023-10-26T14:24:16.375Z,14.40
2023-10-26T14:29:19.378Z,14.30
2023-10-26T14:34:23.889Z,14.40
2023-10-26T14:39:27.654Z,14.40
2023-10-26T14:44:31.073Z,14.40
2023-10-26T14:49:35.738Z,14.50
2023-10-26T14:54:39.092Z,14.50
2023-10-26T14:59:42.753Z,14.40
2023-10-26T15:04:47.543Z,14.40
2023-10-26T15:10:24.997Z,14.30
2023-10-26T15:15:13.994Z,14.20
2023-10-26T15:20:19.131Z,13.90
2023-10-26T15:25:23.044Z,13.70
2023-10-26T15:30:26.839Z,13.70
2023-10-26T15:35:31.362Z,13.50
2023-10-26T15:40:34.516Z,13.50
2023-10-26T15:45:37.414Z,13.30
2023-10-26T15:50:45.109Z,13.40
2023-10-26T15:55:57.582Z,13.30
2023-10-26T16:01:00.784Z,13.30
2023-10-26T16:06:06.254Z,13.20
2023-10-26T16:11:11.474Z,13.30
2023-10-26T16:16:15.198Z,12.90
2023-10-26T16:21:19.445Z,12.60
2023-10-26T16:26:22.426Z,12.40
2023-10-26T16:31:25.374Z,12.20
2023-10-26T16:36:29.560Z,12.10
2023-10-26T16:41:32.426Z,12.00
2023-10-26T16:46:35.344Z,11.90
2023-10-26T16:51:39.534Z,11.80
2023-10-26T16:56:42.432Z,11.80
2023-10-26T17:01:45.289Z,11.70
2023-10-26T17:06:49.470Z,11.80
2023-10-26T17:11:52.299Z,11.80
2023-10-26T17:16:55.118Z,11.60
2023-10-26T17:21:59.444Z,11.60
2023-10-26T17:27:02.285Z,11.50
2023-10-26T17:32:05.882Z,11.20
2023-10-26T17:37:10.066Z,11.00
2023-10-26T17:42:12.916Z,10.80
2023-10-26T17:47:15.914Z,10.60
2023-10-26T17:52:20.185Z,10.40
2023-10-26T17:57:23.049Z,9.90
2023-10-26T18:02:25.973Z,9.60
2023-10-26T18:07:30.078Z,9.30
2023-10-26T18:12:32.916Z,9.30
2023-10-26T18:17:35.742Z,9.10
2023-10-26T18:22:40.447Z,9.00
2023-10-26T18:27:43.358Z,8.90
2023-10-26T18:32:46.219Z,8.90
2023-10-26T18:37:54.700Z,9.00
2023-10-26T18:42:57.540Z,9.20
2023-10-26T18:48:01.260Z,9.20
2023-10-26T18:53:06.528Z,9.10
2023-10-26T18:58:11.447Z,9.00
2023-10-26T19:03:17.734Z,9.20
2023-10-26T19:08:22.347Z,9.50
2023-10-26T19:13:25.395Z,9.90
2023-10-26T19:18:28.365Z,10.20
2023-10-26T19:23:32.644Z,10.40
2023-10-26T19:28:35.454Z,10.50
2023-10-26T19:33:38.332Z,10.80
2023-10-26T19:38:42.548Z,10.80
2023-10-26T19:43:46.067Z,10.80
2023-10-26T19:48:48.889Z,10.70
2023-10-26T19:53:53.297Z,10.60
2023-10-26T19:58:56.143Z,10.60
2023-10-26T20:03:58.946Z,10.40
2023-10-26T20:09:03.450Z,10.20
2023-10-26T20:14:06.470Z,10.20
2023-10-26T20:19:09.324Z,10.40
2023-10-26T20:24:14.459Z,10.60
2023-10-26T20:29:17.218Z,10.80
2023-10-26T20:34:20.342Z,10.80
2023-10-26T20:39:24.621Z,10.70
2023-10-26T20:44:27.450Z,10.90
2023-10-26T20:49:30.252Z,10.90
2023-10-26T20:54:34.464Z,10.80
2023-10-26T20:59:38.528Z,10.50
2023-10-26T21:04:41.492Z,10.50
2023-10-26T21:09:45.840Z,10.40
2023-10-26T21:14:49.008Z,10.30
2023-10-26T21:19:51.925Z,9.90
2023-10-26T21:24:56.100Z,9.50
2023-10-26T21:29:59.046Z,9.20
2023-10-26T21:35:02.066Z,8.90
2023-10-26T21:40:07.467Z,8.90
2023-10-26T21:45:11.305Z,8.90
2023-10-26T21:50:14.127Z,8.90
2023-10-26T21:55:18.410Z,9.00
2023-10-26T22:00:26.173Z,9.20
2023-10-26T22:05:30.874Z,9.50
2023-10-26T22:10:35.085Z,9.70
2023-10-26T22:15:37.902Z,9.80
2023-10-26T22:20:41.541Z,9.90
2023-10-26T22:25:45.927Z,10.00
2023-10-26T22:30:48.699Z,10.10
2023-10-26T22:35:51.498Z,10.10
2023-10-26T22:40:55.750Z,9.90
2023-10-26T22:45:58.583Z,9.90
2023-10-26T22:51:01.601Z,9.80
2023-10-26T22:56:06.217Z,9.50
2023-10-26T23:01:09.061Z,9.50
2023-10-26T23:06:12.301Z,9.60
2023-10-26T23:11:16.422Z,9.50
2023-10-26T23:16:19.291Z,9.70
2023-10-26T23:21:22.120Z,9.90
2023-10-26T23:26:26.310Z,10.00
2023-10-26T23:31:29.151Z,10.20
2023-10-26T23:36:31.914Z,10.30
2023-10-26T23:41:36.071Z,10.30
2023-10-26T23:46:38.842Z,10.30
2023-10-26T23:51:41.714Z,10.30
2023-10-26T23:56:45.838Z,10.20
